Tuesday, November 21, 2017, 10:38 AM EST
Back to Local

KIAD, Dulles International Airport

Location: Chantilly, VA, United States Lat: 38.933
Local Time: 10:38 AM EST (15:38 GMT) Lon: -77.45
Time Zone: US/Eastern Elev: 311 ft

Show me the last for .
Show Coded

Time T Td Feel RH Dir Speed Gust Alt SLP Vis Weather Sky Remarks
2017-11-21 09:52 48 30 43 49 200° 10 - 30.13 30.13 10 FEW250 None
2017-11-21 08:52 42 29 35 59 200° 14 - 30.13 30.13 10 SCT250 None
2017-11-21 07:52 38 28 33 67 180° 7 - 30.13 30.14 10 SCT250 None
2017-11-21 06:52 34 27 29 75 190° 6 - 30.13 30.13 10 SCT250 6-hr Min Temp (7am): 34.0°F
6-hr Max Temp (7am): 39.0°F
2017-11-21 05:52 35 27 31 72 200° 5 - 30.12 30.13 10 FEW250 None
2017-11-21 04:52 36 27 31 69 190° 6 - 30.12 30.12 10 FEW250 None
2017-11-21 03:52 38 27 31 64 190° 10 - 30.12 30.12 10 FEW250 None
2017-11-21 02:52 38 26 32 61 170° 8 - 30.13 30.13 10 SCT250 None
2017-11-21 01:52 38 27 30 64 180° 12 - 30.14 30.15 10 BKN250 None
2017-11-21 00:52 37 26 32 64 180° 6 - 30.16 30.16 10 SCT250 6-hr Min Temp (1am): 36.0°F
6-hr Max Temp (1am): 43.0°F
2017-11-20 23:52 36 26 30 66 190° 7 - 30.17 30.17 10 BKN250 24-hr Min Temp (12am): 35.1°F
24-hr Max Temp (12am): 51.1°F
2017-11-20 22:52 36 26 30 66 190° 8 - 30.17 30.17 10 SCT250 None
2017-11-20 21:52 37 25 32 61 200° 6 - 30.17 30.17 10 CLR None
2017-11-20 20:52 40 23 36 50 190° 6 - 30.17 30.18 10 CLR None
2017-11-20 19:52 41 23 37 48 170° 6 - 30.17 30.17 10 CLR None
2017-11-20 18:52 42 24 39 48 170° 5 - 30.16 30.17 10 FEW250 6-hr Min Temp (7pm): 39.9°F
6-hr Max Temp (7pm): 51.1°F
2017-11-20 17:52 44 23 41 42 180° 6 - 30.17 30.17 10 FEW250 None
2017-11-20 16:52 46 23 44 39 200° 5 - 30.17 30.17 10 FEW250 None
2017-11-20 15:52 50 23 46 34 200° 9 - 30.16 30.16 10 FEW250 None
2017-11-20 14:52 51 22 - 31 210° 14 - 30.16 30.16 10 FEW250 None
2017-11-20 13:52 50 22 47 32 250° 8 - 30.17 30.17 10 FEW250 None
2017-11-20 12:52 48 22 43 35 240° 10 - 30.18 30.18 10 FEW100 6-hr Min Temp (1pm): 36.0°F
6-hr Max Temp (1pm): 48.9°F
2017-11-20 11:52 46 22 41 38 260° 10 - 30.19 30.19 10 FEW070 None
2017-11-20 10:52 44 22 41 41 260° 6 - 30.21 30.21 10 CLR None

Support USWX by starting your Amazon purchase here.